createdAt,value
2023-03-23T15:59:14.505Z,4.82
2023-03-23T16:01:44.197Z,4.60
2023-03-23T16:04:15.234Z,4.65
2023-03-23T16:06:43.984Z,4.40
2023-03-23T16:09:16.899Z,4.22
2023-03-23T16:11:46.850Z,3.90
2023-03-23T16:14:15.127Z,4.25
2023-03-23T16:16:50.195Z,4.20
2023-03-23T16:19:24.569Z,4.28
2023-03-23T16:21:53.691Z,4.50
2023-03-23T16:24:21.940Z,4.25
2023-03-23T16:26:51.783Z,4.97
2023-03-23T16:29:37.022Z,4.97
2023-03-23T16:32:08.471Z,3.08
2023-03-23T16:34:37.258Z,2.30
2023-03-23T16:37:07.037Z,4.38
2023-03-23T16:39:35.477Z,4.00
2023-03-23T16:42:05.320Z,5.07
2023-03-23T16:44:33.614Z,3.80
2023-03-23T16:47:02.002Z,4.70
2023-03-23T16:49:30.574Z,2.78
2023-03-23T16:51:59.569Z,4.63
2023-03-23T16:54:28.001Z,4.22
2023-03-23T16:56:56.441Z,4.15
2023-03-23T16:59:29.110Z,4.75
2023-03-23T17:02:03.351Z,5.88
2023-03-23T17:04:32.580Z,4.32
2023-03-23T17:07:01.689Z,4.38
2023-03-23T17:09:30.160Z,4.32
2023-03-23T17:11:58.478Z,3.88
2023-03-23T17:14:28.444Z,4.68
2023-03-23T17:16:57.037Z,6.80
2023-03-23T17:19:25.466Z,7.15
2023-03-23T17:21:53.848Z,6.05
2023-03-23T17:24:22.479Z,7.00
2023-03-23T17:26:50.855Z,5.18
2023-03-23T17:29:19.161Z,4.50
2023-03-23T17:31:49.219Z,5.00
2023-03-23T17:34:18.791Z,5.18
2023-03-23T17:36:48.076Z,4.45
2023-03-23T17:39:16.742Z,7.13
2023-03-23T17:41:45.057Z,7.05
2023-03-23T17:44:13.458Z,7.72
2023-03-23T17:46:49.109Z,8.02
2023-03-23T17:49:17.432Z,6.47
2023-03-23T17:51:46.115Z,6.00
2023-03-23T17:54:14.578Z,4.65
2023-03-23T17:56:43.179Z,5.45
2023-03-23T17:59:11.655Z,5.30
2023-03-23T18:01:40.112Z,6.20
2023-03-23T18:04:09.879Z,5.75
2023-03-23T18:06:38.168Z,6.05
2023-03-23T18:09:06.483Z,5.95
2023-03-23T18:11:34.845Z,5.85
2023-03-23T18:14:03.203Z,5.40
2023-03-23T18:16:31.844Z,4.35
2023-03-23T18:19:00.882Z,4.43
2023-03-23T18:21:30.775Z,5.13
2023-03-23T18:24:00.098Z,4.60
2023-03-23T18:26:29.422Z,3.85
2023-03-23T18:28:58.300Z,3.42
2023-03-23T18:31:26.861Z,3.83
2023-03-23T18:33:55.605Z,4.32
2023-03-23T18:36:26.035Z,3.63
2023-03-23T18:38:58.301Z,3.30
2023-03-23T18:41:27.178Z,4.45
2023-03-23T18:43:57.587Z,4.38
2023-03-23T18:46:26.848Z,3.70
2023-03-23T18:48:57.288Z,2.50
2023-03-23T18:51:26.302Z,3.90
2023-03-23T18:53:54.791Z,2.55
2023-03-23T18:56:25.822Z,4.13
2023-03-23T18:58:54.672Z,3.53
2023-03-23T19:01:23.676Z,3.50
2023-03-23T19:03:52.040Z,3.53
2023-03-23T19:06:23.202Z,3.10
2023-03-23T19:08:52.095Z,4.15
2023-03-23T19:11:21.151Z,3.78
2023-03-23T19:14:01.569Z,5.05
2023-03-23T19:16:32.533Z,3.80
2023-03-23T19:19:02.014Z,4.38
2023-03-23T19:21:32.073Z,3.90
2023-03-23T19:24:01.448Z,4.00
2023-03-23T19:26:34.849Z,4.30
2023-03-23T19:31:37.753Z,4.40
2023-03-23T19:34:06.260Z,4.15
2023-03-23T19:36:34.826Z,5.13
2023-03-23T19:39:04.997Z,2.90
2023-03-23T19:41:33.465Z,4.45
2023-03-23T19:44:04.021Z,3.95
2023-03-23T19:46:34.308Z,4.00
2023-03-23T19:49:03.651Z,4.10
2023-03-23T19:51:32.211Z,4.15
2023-03-23T19:54:01.082Z,4.57
2023-03-23T19:56:30.529Z,4.25
2023-03-23T19:59:00.236Z,4.50
2023-03-23T20:01:29.706Z,4.15
2023-03-23T20:04:01.853Z,4.40
2023-03-23T20:06:30.730Z,4.50
2023-03-23T20:09:00.324Z,5.18
2023-03-23T20:11:29.860Z,3.55
2023-03-23T20:13:58.418Z,4.78
2023-03-23T20:16:27.283Z,2.92
2023-03-23T20:18:59.620Z,4.20
2023-03-23T20:21:30.335Z,4.25
2023-03-23T20:23:59.542Z,4.30
2023-03-23T20:26:30.956Z,4.32
2023-03-23T20:28:59.802Z,4.57
2023-03-23T20:31:29.767Z,4.05
2023-03-23T20:34:01.887Z,3.90
2023-03-23T20:36:35.100Z,4.72
2023-03-23T20:39:05.652Z,4.95
2023-03-23T20:41:36.319Z,5.10
2023-03-23T20:44:05.194Z,5.28
2023-03-23T20:46:33.826Z,4.57
2023-03-23T20:49:03.045Z,4.47
2023-03-23T20:51:33.171Z,4.53
2023-03-23T20:54:02.085Z,3.42
2023-03-23T20:56:30.587Z,5.43
2023-03-23T20:58:59.071Z,3.88
2023-03-23T21:01:27.588Z,3.17
2023-03-23T21:03:57.156Z,4.95
2023-03-23T21:06:28.521Z,4.88
2023-03-23T21:08:59.131Z,6.18
2023-03-23T21:11:28.552Z,6.07
2023-03-23T21:13:56.869Z,5.75
2023-03-23T21:16:25.591Z,5.63
2023-03-23T21:18:54.048Z,4.72
2023-03-23T21:21:24.666Z,5.43
2023-03-23T21:23:53.365Z,4.68
2023-03-23T21:26:24.627Z,3.88
2023-03-23T21:28:54.132Z,4.45
2023-03-23T21:31:25.661Z,4.43
2023-03-23T21:33:53.934Z,7.40
2023-03-23T21:36:22.238Z,5.68
2023-03-23T21:38:51.283Z,7.07
2023-03-23T21:41:19.585Z,4.43
2023-03-23T21:43:50.206Z,7.30
2023-03-23T21:46:21.713Z,7.60
2023-03-23T21:48:51.810Z,9.45
2023-03-23T21:51:22.863Z,7.75
2023-03-23T21:53:54.480Z,6.40
2023-03-23T21:56:24.149Z,7.07
2023-03-23T21:58:53.935Z,8.25
2023-03-23T22:01:22.654Z,6.43
2023-03-23T22:03:52.018Z,7.20
2023-03-23T22:06:23.546Z,8.00
2023-03-23T22:08:52.789Z,4.03
2023-03-23T22:11:23.134Z,5.07
2023-03-23T22:13:53.353Z,7.72
2023-03-23T22:16:22.327Z,7.55
2023-03-23T22:18:52.462Z,6.90
2023-03-23T22:21:22.283Z,7.43
2023-03-23T22:23:50.895Z,7.38
2023-03-23T22:26:19.614Z,5.60
2023-03-23T22:28:49.672Z,6.47
2023-03-23T22:31:22.170Z,7.78
2023-03-23T22:33:54.303Z,7.13
2023-03-23T22:36:23.303Z,4.55
2023-03-23T22:38:52.059Z,7.60
2023-03-23T22:41:23.538Z,7.07
2023-03-23T22:43:51.987Z,7.05
2023-03-23T22:46:22.058Z,4.75
2023-03-23T22:48:50.514Z,7.13
2023-03-23T22:51:19.556Z,7.63
2023-03-23T22:53:47.960Z,7.32
2023-03-23T22:56:16.920Z,8.02
2023-03-23T22:58:45.895Z,5.88
2023-03-23T23:01:15.911Z,5.30
2023-03-23T23:03:46.215Z,5.68
2023-03-23T23:06:16.010Z,7.80
2023-03-23T23:08:44.698Z,7.95
2023-03-23T23:11:15.201Z,6.97
2023-03-23T23:13:44.494Z,8.15
2023-03-23T23:16:14.231Z,7.10
2023-03-23T23:18:43.078Z,7.18
2023-03-23T23:21:15.554Z,7.70
2023-03-23T23:23:45.030Z,5.37
2023-03-23T23:26:14.938Z,8.25
2023-03-23T23:28:43.662Z,7.03
2023-03-23T23:31:19.301Z,4.80
2023-03-23T23:33:47.589Z,8.32
2023-03-23T23:36:18.348Z,6.70
2023-03-23T23:38:46.728Z,4.13
2023-03-23T23:41:15.395Z,5.50
2023-03-23T23:43:44.200Z,7.72
2023-03-23T23:46:12.692Z,6.90
2023-03-23T23:48:42.087Z,7.82
2023-03-23T23:51:11.164Z,6.13
2023-03-23T23:53:44.368Z,7.20
2023-03-23T23:56:13.597Z,8.13
2023-03-23T23:58:41.914Z,9.45
